sensor_id;sensor_type;location;lat;lon;timestamp;noise_LAeq;noise_LA_min;noise_LA_max;noise_LA01;noise_LA95
41704;Laerm;861;48.808;9.006;2023-01-08T00:00:01;36.72;35.41;37.84;;
41704;Laerm;861;48.808;9.006;2023-01-08T00:02:28;36.72;35.36;38.09;;
41704;Laerm;861;48.808;9.006;2023-01-08T00:04:55;36.71;35.47;38.09;;
41704;Laerm;861;48.808;9.006;2023-01-08T00:07:21;36.71;35.55;38.00;;
41704;Laerm;861;48.808;9.006;2023-01-08T00:09:47;36.70;35.16;37.79;;
41704;Laerm;861;48.808;9.006;2023-01-08T00:12:15;36.71;35.46;37.79;;
41704;Laerm;861;48.808;9.006;2023-01-08T00:14:41;36.70;35.37;37.82;;
41704;Laerm;861;48.808;9.006;2023-01-08T00:17:08;36.72;35.43;38.11;;
41704;Laerm;861;48.808;9.006;2023-01-08T00:19:34;36.72;35.48;38.03;;
41704;Laerm;861;48.808;9.006;2023-01-08T00:22:00;36.73;35.50;37.92;;
41704;Laerm;861;48.808;9.006;2023-01-08T00:24:26;36.74;35.42;38.08;;
41704;Laerm;861;48.808;9.006;2023-01-08T00:26:52;36.75;35.21;37.88;;
41704;Laerm;861;48.808;9.006;2023-01-08T00:29:18;36.74;35.32;38.53;;
41704;Laerm;861;48.808;9.006;2023-01-08T00:31:44;36.75;35.33;38.15;;
41704;Laerm;861;48.808;9.006;2023-01-08T00:34:10;36.75;35.48;38.04;;
41704;Laerm;861;48.808;9.006;2023-01-08T00:36:36;36.75;35.36;38.06;;
41704;Laerm;861;48.808;9.006;2023-01-08T00:39:03;36.77;35.34;38.05;;
41704;Laerm;861;48.808;9.006;2023-01-08T00:41:29;36.76;35.27;38.02;;
41704;Laerm;861;48.808;9.006;2023-01-08T00:43:55;36.77;35.46;38.08;;
41704;Laerm;861;48.808;9.006;2023-01-08T00:46:22;36.75;35.45;37.92;;
41704;Laerm;861;48.808;9.006;2023-01-08T00:48:48;36.74;35.43;37.90;;
41704;Laerm;861;48.808;9.006;2023-01-08T00:51:14;36.73;35.47;37.83;;
41704;Laerm;861;48.808;9.006;2023-01-08T00:53:40;36.74;35.46;37.97;;
41704;Laerm;861;48.808;9.006;2023-01-08T00:56:09;36.75;35.54;39.50;;
41704;Laerm;861;48.808;9.006;2023-01-08T00:58:37;36.74;35.44;37.98;;
41704;Laerm;861;48.808;9.006;2023-01-08T01:01:14;36.73;35.61;37.95;;
41704;Laerm;861;48.808;9.006;2023-01-08T01:03:42;36.73;35.42;38.11;;
41704;Laerm;861;48.808;9.006;2023-01-08T01:06:12;36.72;35.41;37.75;;
41704;Laerm;861;48.808;9.006;2023-01-08T01:08:40;36.73;35.35;38.15;;
41704;Laerm;861;48.808;9.006;2023-01-08T01:11:22;36.72;35.54;38.05;;
41704;Laerm;861;48.808;9.006;2023-01-08T01:13:49;36.71;35.26;37.81;;
41704;Laerm;861;48.808;9.006;2023-01-08T01:16:17;36.72;35.45;38.02;;
41704;Laerm;861;48.808;9.006;2023-01-08T01:18:44;36.73;35.49;37.97;;
41704;Laerm;861;48.808;9.006;2023-01-08T01:21:32;36.73;35.36;37.85;;
41704;Laerm;861;48.808;9.006;2023-01-08T01:24:04;36.74;35.53;38.20;;
41704;Laerm;861;48.808;9.006;2023-01-08T01:26:33;36.74;35.50;37.96;;
41704;Laerm;861;48.808;9.006;2023-01-08T01:29:03;36.75;35.37;38.05;;
41704;Laerm;861;48.808;9.006;2023-01-08T01:31:31;36.76;35.52;37.97;;
41704;Laerm;861;48.808;9.006;2023-01-08T01:33:58;36.75;35.40;38.01;;
41704;Laerm;861;48.808;9.006;2023-01-08T01:36:26;36.75;35.44;37.97;;
41704;Laerm;861;48.808;9.006;2023-01-08T01:38:57;36.77;35.09;37.95;;
41704;Laerm;861;48.808;9.006;2023-01-08T01:41:45;36.78;35.65;38.08;;
41704;Laerm;861;48.808;9.006;2023-01-08T01:44:44;36.77;35.60;39.13;;
41704;Laerm;861;48.808;9.006;2023-01-08T01:47:36;36.79;35.45;38.55;;
41704;Laerm;861;48.808;9.006;2023-01-08T01:50:41;36.80;35.57;38.10;;
41704;Laerm;861;48.808;9.006;2023-01-08T01:53:30;36.79;35.63;38.02;;
41704;Laerm;861;48.808;9.006;2023-01-08T01:56:01;36.80;35.29;37.98;;
41704;Laerm;861;48.808;9.006;2023-01-08T01:58:31;36.79;35.41;38.05;;
41704;Laerm;861;48.808;9.006;2023-01-08T02:01:07;36.81;35.46;38.33;;
41704;Laerm;861;48.808;9.006;2023-01-08T02:03:39;36.82;35.14;37.96;;
41704;Laerm;861;48.808;9.006;2023-01-08T02:06:36;36.81;35.54;43.31;;
41704;Laerm;861;48.808;9.006;2023-01-08T02:10:03;36.82;35.49;38.02;;
41704;Laerm;861;48.808;9.006;2023-01-08T02:12:46;36.84;35.31;38.62;;
41704;Laerm;861;48.808;9.006;2023-01-08T02:15:51;36.83;35.40;38.19;;
41704;Laerm;861;48.808;9.006;2023-01-08T02:18:51;36.81;35.47;37.93;;
41704;Laerm;861;48.808;9.006;2023-01-08T02:21:56;36.81;35.25;38.02;;
41704;Laerm;861;48.808;9.006;2023-01-08T02:25:08;36.82;35.50;37.97;;
41704;Laerm;861;48.808;9.006;2023-01-08T02:27:45;36.81;35.43;38.06;;
41704;Laerm;861;48.808;9.006;2023-01-08T02:30:14;36.81;35.46;38.19;;
41704;Laerm;861;48.808;9.006;2023-01-08T02:32:42;36.82;35.60;38.19;;
41704;Laerm;861;48.808;9.006;2023-01-08T02:35:11;36.80;35.51;38.01;;
41704;Laerm;861;48.808;9.006;2023-01-08T02:37:39;36.83;35.36;38.52;;
41704;Laerm;861;48.808;9.006;2023-01-08T02:43:44;36.83;35.40;38.79;;
41704;Laerm;861;48.808;9.006;2023-01-08T02:46:25;36.84;35.39;38.08;;
41704;Laerm;861;48.808;9.006;2023-01-08T02:49:10;36.82;35.66;38.00;;
41704;Laerm;861;48.808;9.006;2023-01-08T02:51:52;36.80;35.54;37.90;;
41704;Laerm;861;48.808;9.006;2023-01-08T02:54:31;36.79;35.54;38.36;;
41704;Laerm;861;48.808;9.006;2023-01-08T02:57:14;36.81;35.30;37.93;;
41704;Laerm;861;48.808;9.006;2023-01-08T02:59:48;36.80;35.46;39.20;;
41704;Laerm;861;48.808;9.006;2023-01-08T03:02:16;36.79;35.50;39.01;;
41704;Laerm;861;48.808;9.006;2023-01-08T03:05:04;36.80;35.58;38.11;;
41704;Laerm;861;48.808;9.006;2023-01-08T03:07:33;36.78;35.51;37.99;;
41704;Laerm;861;48.808;9.006;2023-01-08T03:10:00;36.75;35.31;39.52;;
41704;Laerm;861;48.808;9.006;2023-01-08T03:12:55;36.75;35.25;38.08;;
41704;Laerm;861;48.808;9.006;2023-01-08T03:15:46;36.76;35.41;37.92;;
41704;Laerm;861;48.808;9.006;2023-01-08T03:18:31;36.76;35.53;38.26;;
41704;Laerm;861;48.808;9.006;2023-01-08T03:21:05;36.76;35.32;37.95;;
41704;Laerm;861;48.808;9.006;2023-01-08T03:23:38;36.76;35.46;37.94;;
41704;Laerm;861;48.808;9.006;2023-01-08T03:26:14;36.76;35.03;38.03;;
41704;Laerm;861;48.808;9.006;2023-01-08T03:28:54;36.77;35.47;37.97;;
41704;Laerm;861;48.808;9.006;2023-01-08T03:31:27;36.77;35.47;37.97;;
41704;Laerm;861;48.808;9.006;2023-01-08T03:34:00;36.79;35.50;38.15;;
41704;Laerm;861;48.808;9.006;2023-01-08T03:36:34;36.81;35.37;38.29;;
41704;Laerm;861;48.808;9.006;2023-01-08T03:39:29;36.81;35.53;38.13;;
41704;Laerm;861;48.808;9.006;2023-01-08T03:42:08;36.80;35.44;38.00;;
41704;Laerm;861;48.808;9.006;2023-01-08T03:44:37;36.80;35.44;38.00;;
41704;Laerm;861;48.808;9.006;2023-01-08T03:47:09;36.81;35.39;37.89;;
41704;Laerm;861;48.808;9.006;2023-01-08T03:49:40;36.81;35.57;38.04;;
41704;Laerm;861;48.808;9.006;2023-01-08T03:52:08;36.80;35.41;37.94;;
41704;Laerm;861;48.808;9.006;2023-01-08T03:54:36;36.81;35.48;38.11;;
41704;Laerm;861;48.808;9.006;2023-01-08T03:57:03;36.82;35.40;38.02;;
41704;Laerm;861;48.808;9.006;2023-01-08T03:59:29;36.82;35.49;37.96;;
41704;Laerm;861;48.808;9.006;2023-01-08T04:01:55;36.80;35.45;38.20;;
41704;Laerm;861;48.808;9.006;2023-01-08T04:04:21;36.78;35.44;38.08;;
41704;Laerm;861;48.808;9.006;2023-01-08T04:06:47;36.78;35.44;37.89;;
41704;Laerm;861;48.808;9.006;2023-01-08T04:09:13;36.76;35.46;37.90;;
41704;Laerm;861;48.808;9.006;2023-01-08T04:11:39;36.79;35.40;40.94;;
41704;Laerm;861;48.808;9.006;2023-01-08T04:14:06;36.79;35.31;40.32;;
41704;Laerm;861;48.808;9.006;2023-01-08T04:16:32;36.79;35.52;37.99;;
41704;Laerm;861;48.808;9.006;2023-01-08T04:18:59;36.76;35.46;38.08;;
41704;Laerm;861;48.808;9.006;2023-01-08T04:21:25;36.76;35.31;38.04;;
41704;Laerm;861;48.808;9.006;2023-01-08T04:23:53;36.76;35.45;38.18;;
41704;Laerm;861;48.808;9.006;2023-01-08T04:26:19;36.76;35.53;39.13;;
41704;Laerm;861;48.808;9.006;2023-01-08T04:28:45;36.77;35.46;37.95;;
41704;Laerm;861;48.808;9.006;2023-01-08T04:31:11;36.77;35.50;38.08;;
41704;Laerm;861;48.808;9.006;2023-01-08T04:33:37;36.75;35.42;38.05;;
41704;Laerm;861;48.808;9.006;2023-01-08T04:36:04;36.75;35.47;37.99;;
41704;Laerm;861;48.808;9.006;2023-01-08T04:38:31;36.75;35.38;37.88;;
41704;Laerm;861;48.808;9.006;2023-01-08T04:41:02;36.74;35.25;38.00;;
41704;Laerm;861;48.808;9.006;2023-01-08T04:43:30;36.73;35.43;37.99;;
41704;Laerm;861;48.808;9.006;2023-01-08T04:46:04;36.71;35.17;38.23;;
41704;Laerm;861;48.808;9.006;2023-01-08T04:48:32;36.72;35.45;39.15;;
41704;Laerm;861;48.808;9.006;2023-01-08T04:51:01;36.74;35.56;38.41;;
41704;Laerm;861;48.808;9.006;2023-01-08T04:53:30;36.74;35.34;37.97;;
41704;Laerm;861;48.808;9.006;2023-01-08T04:56:07;36.73;35.49;37.87;;
41704;Laerm;861;48.808;9.006;2023-01-08T04:58:37;36.76;35.21;37.85;;
41704;Laerm;861;48.808;9.006;2023-01-08T05:01:23;36.79;35.53;41.48;;
41704;Laerm;861;48.808;9.006;2023-01-08T05:03:59;36.77;35.52;38.02;;
41704;Laerm;861;48.808;9.006;2023-01-08T05:06:31;36.77;35.39;38.07;;
41704;Laerm;861;48.808;9.006;2023-01-08T05:08:58;36.86;35.63;39.95;;
41704;Laerm;861;48.808;9.006;2023-01-08T05:11:25;36.87;35.41;39.27;;
41704;Laerm;861;48.808;9.006;2023-01-08T05:13:53;36.90;35.60;43.30;;
41704;Laerm;861;48.808;9.006;2023-01-08T05:16:20;37.15;35.67;44.68;;
41704;Laerm;861;48.808;9.006;2023-01-08T05:18:47;36.93;35.50;39.41;;
41704;Laerm;861;48.808;9.006;2023-01-08T05:21:14;37.12;35.58;45.79;;
41704;Laerm;861;48.808;9.006;2023-01-08T05:23:46;37.10;35.39;42.48;;
41704;Laerm;861;48.808;9.006;2023-01-08T05:26:14;36.93;35.63;39.22;;
41704;Laerm;861;48.808;9.006;2023-01-08T05:28:42;36.91;35.59;40.61;;
41704;Laerm;861;48.808;9.006;2023-01-08T05:31:08;38.47;35.56;53.23;;
41704;Laerm;861;48.808;9.006;2023-01-08T05:33:37;37.48;35.63;50.51;;
41704;Laerm;861;48.808;9.006;2023-01-08T05:36:08;36.91;35.57;39.19;;
41704;Laerm;861;48.808;9.006;2023-01-08T05:38:35;38.40;35.63;53.05;;
41704;Laerm;861;48.808;9.006;2023-01-08T05:41:01;37.05;35.53;46.14;;
41704;Laerm;861;48.808;9.006;2023-01-08T05:43:27;37.22;35.72;45.17;;
41704;Laerm;861;48.808;9.006;2023-01-08T05:45:57;37.21;35.41;45.71;;
41704;Laerm;861;48.808;9.006;2023-01-08T05:48:23;39.29;35.79;55.92;;
41704;Laerm;861;48.808;9.006;2023-01-08T05:50:49;37.17;35.70;51.82;;
41704;Laerm;861;48.808;9.006;2023-01-08T05:53:15;37.20;35.65;47.30;;
41704;Laerm;861;48.808;9.006;2023-01-08T05:55:41;37.41;35.42;49.63;;
41704;Laerm;861;48.808;9.006;2023-01-08T05:58:08;36.92;35.64;40.19;;
41704;Laerm;861;48.808;9.006;2023-01-08T06:00:37;36.92;35.69;40.90;;
41704;Laerm;861;48.808;9.006;2023-01-08T06:03:04;37.26;35.32;48.13;;
41704;Laerm;861;48.808;9.006;2023-01-08T06:05:32;37.11;35.65;46.46;;
41704;Laerm;861;48.808;9.006;2023-01-08T06:08:00;37.53;35.38;51.88;;
41704;Laerm;861;48.808;9.006;2023-01-08T06:10:27;37.02;35.46;44.64;;
41704;Laerm;861;48.808;9.006;2023-01-08T06:12:54;37.10;35.71;47.52;;
41704;Laerm;861;48.808;9.006;2023-01-08T06:15:21;37.20;35.49;46.04;;
41704;Laerm;861;48.808;9.006;2023-01-08T06:17:47;37.62;35.39;49.63;;
41704;Laerm;861;48.808;9.006;2023-01-08T06:20:13;36.90;35.52;42.11;;
41704;Laerm;861;48.808;9.006;2023-01-08T06:22:40;37.02;35.49;44.87;;
41704;Laerm;861;48.808;9.006;2023-01-08T06:25:06;37.11;35.46;46.10;;
41704;Laerm;861;48.808;9.006;2023-01-08T06:27:33;36.95;35.62;45.59;;
41704;Laerm;861;48.808;9.006;2023-01-08T06:29:59;36.91;35.60;42.26;;
41704;Laerm;861;48.808;9.006;2023-01-08T06:32:25;37.02;35.55;43.28;;
41704;Laerm;861;48.808;9.006;2023-01-08T06:34:51;37.01;35.54;45.23;;
41704;Laerm;861;48.808;9.006;2023-01-08T06:37:17;37.88;35.65;54.87;;
41704;Laerm;861;48.808;9.006;2023-01-08T06:39:43;37.15;35.53;45.73;;
41704;Laerm;861;48.808;9.006;2023-01-08T06:42:09;37.12;35.51;49.12;;
41704;Laerm;861;48.808;9.006;2023-01-08T06:44:36;36.97;35.44;42.71;;
41704;Laerm;861;48.808;9.006;2023-01-08T06:47:02;36.87;35.58;38.57;;
41704;Laerm;861;48.808;9.006;2023-01-08T06:49:28;36.91;35.62;43.59;;
41704;Laerm;861;48.808;9.006;2023-01-08T06:51:54;37.00;35.53;46.71;;
41704;Laerm;861;48.808;9.006;2023-01-08T06:54:20;37.08;35.71;48.02;;
41704;Laerm;861;48.808;9.006;2023-01-08T06:56:48;36.90;35.69;40.26;;
41704;Laerm;861;48.808;9.006;2023-01-08T06:59:14;36.94;35.53;49.13;;
41704;Laerm;861;48.808;9.006;2023-01-08T07:01:40;36.93;35.58;44.05;;
41704;Laerm;861;48.808;9.006;2023-01-08T07:04:08;36.94;35.62;42.88;;
41704;Laerm;861;48.808;9.006;2023-01-08T07:06:34;36.91;35.68;47.33;;
41704;Laerm;861;48.808;9.006;2023-01-08T07:09:00;37.13;35.35;48.12;;
41704;Laerm;861;48.808;9.006;2023-01-08T07:11:26;39.49;35.45;55.75;;
41704;Laerm;861;48.808;9.006;2023-01-08T07:13:55;38.20;35.58;54.14;;
41704;Laerm;861;48.808;9.006;2023-01-08T07:16:21;38.66;35.57;56.96;;
41704;Laerm;861;48.808;9.006;2023-01-08T07:18:47;39.21;35.64;64.24;;
41704;Laerm;861;48.808;9.006;2023-01-08T07:21:13;37.38;35.46;49.11;;
41704;Laerm;861;48.808;9.006;2023-01-08T07:23:40;37.01;35.67;48.40;;
41704;Laerm;861;48.808;9.006;2023-01-08T07:26:07;37.58;35.68;50.36;;
41704;Laerm;861;48.808;9.006;2023-01-08T07:28:33;37.41;35.49;50.36;;
41704;Laerm;861;48.808;9.006;2023-01-08T07:31:05;37.05;35.30;45.86;;
41704;Laerm;861;48.808;9.006;2023-01-08T07:33:32;38.88;35.38;58.77;;
41704;Laerm;861;48.808;9.006;2023-01-08T07:35:58;37.92;35.48;48.57;;
41704;Laerm;861;48.808;9.006;2023-01-08T07:38:26;41.61;35.49;59.25;;
41704;Laerm;861;48.808;9.006;2023-01-08T07:40:52;37.24;35.49;47.22;;
41704;Laerm;861;48.808;9.006;2023-01-08T07:43:19;37.98;35.48;49.92;;
41704;Laerm;861;48.808;9.006;2023-01-08T07:45:45;37.24;35.56;47.79;;
41704;Laerm;861;48.808;9.006;2023-01-08T07:48:11;37.72;35.62;52.76;;
41704;Laerm;861;48.808;9.006;2023-01-08T07:50:43;37.13;35.52;49.53;;
41704;Laerm;861;48.808;9.006;2023-01-08T07:53:12;37.06;35.34;47.20;;
41704;Laerm;861;48.808;9.006;2023-01-08T07:55:42;38.43;35.42;56.50;;
41704;Laerm;861;48.808;9.006;2023-01-08T07:58:13;38.01;35.49;52.30;;
41704;Laerm;861;48.808;9.006;2023-01-08T08:00:40;37.24;35.52;48.15;;
41704;Laerm;861;48.808;9.006;2023-01-08T08:03:09;37.09;35.37;46.25;;
41704;Laerm;861;48.808;9.006;2023-01-08T08:05:36;36.80;35.43;42.95;;
41704;Laerm;861;48.808;9.006;2023-01-08T08:08:11;39.21;35.14;57.78;;
41704;Laerm;861;48.808;9.006;2023-01-08T08:10:41;37.89;35.34;50.03;;
41704;Laerm;861;48.808;9.006;2023-01-08T08:13:08;38.19;35.45;55.38;;
41704;Laerm;861;48.808;9.006;2023-01-08T08:15:37;37.23;35.48;51.39;;
41704;Laerm;861;48.808;9.006;2023-01-08T08:18:06;37.03;35.39;46.64;;
41704;Laerm;861;48.808;9.006;2023-01-08T08:20:32;38.36;35.45;53.05;;
41704;Laerm;861;48.808;9.006;2023-01-08T08:23:08;37.13;35.38;47.55;;
41704;Laerm;861;48.808;9.006;2023-01-08T08:25:36;37.35;35.40;46.92;;
41704;Laerm;861;48.808;9.006;2023-01-08T08:28:04;37.04;35.40;46.32;;
41704;Laerm;861;48.808;9.006;2023-01-08T08:30:34;38.76;35.31;60.01;;
41704;Laerm;861;48.808;9.006;2023-01-08T08:33:05;39.46;35.62;55.08;;
41704;Laerm;861;48.808;9.006;2023-01-08T08:35:34;39.45;35.61;55.07;;
41704;Laerm;861;48.808;9.006;2023-01-08T08:38:02;37.18;35.40;48.79;;
41704;Laerm;861;48.808;9.006;2023-01-08T08:40:29;36.97;35.37;46.80;;
41704;Laerm;861;48.808;9.006;2023-01-08T08:43:03;37.15;35.27;49.18;;
41704;Laerm;861;48.808;9.006;2023-01-08T08:45:30;37.49;35.40;48.44;;
41704;Laerm;861;48.808;9.006;2023-01-08T08:47:56;37.00;35.58;45.40;;
41704;Laerm;861;48.808;9.006;2023-01-08T08:50:23;36.90;35.59;47.38;;
41704;Laerm;861;48.808;9.006;2023-01-08T08:52:49;36.87;35.44;46.37;;
41704;Laerm;861;48.808;9.006;2023-01-08T08:55:17;37.58;35.40;50.63;;
41704;Laerm;861;48.808;9.006;2023-01-08T08:57:47;39.11;35.60;54.05;;
41704;Laerm;861;48.808;9.006;2023-01-08T09:00:15;42.91;35.41;63.04;;
41704;Laerm;861;48.808;9.006;2023-01-08T09:02:42;37.36;35.40;48.88;;
41704;Laerm;861;48.808;9.006;2023-01-08T09:05:09;37.61;35.22;53.33;;
41704;Laerm;861;48.808;9.006;2023-01-08T09:07:36;40.64;35.56;56.98;;
41704;Laerm;861;48.808;9.006;2023-01-08T09:10:04;37.18;35.51;46.71;;
41704;Laerm;861;48.808;9.006;2023-01-08T09:12:30;39.47;35.61;62.69;;
41704;Laerm;861;48.808;9.006;2023-01-08T09:14:56;37.76;35.58;49.32;;
41704;Laerm;861;48.808;9.006;2023-01-08T09:17:23;37.46;35.58;52.15;;
41704;Laerm;861;48.808;9.006;2023-01-08T09:19:50;37.27;35.30;48.50;;
41704;Laerm;861;48.808;9.006;2023-01-08T09:22:17;38.19;35.62;54.44;;
41704;Laerm;861;48.808;9.006;2023-01-08T09:24:43;37.54;35.40;49.83;;
41704;Laerm;861;48.808;9.006;2023-01-08T09:27:09;36.96;35.47;43.29;;
41704;Laerm;861;48.808;9.006;2023-01-08T09:29:35;37.14;35.50;48.97;;
41704;Laerm;861;48.808;9.006;2023-01-08T09:32:05;37.93;35.43;50.84;;
41704;Laerm;861;48.808;9.006;2023-01-08T09:34:33;38.48;35.51;53.71;;
41704;Laerm;861;48.808;9.006;2023-01-08T09:37:02;37.42;35.38;47.50;;
41704;Laerm;861;48.808;9.006;2023-01-08T09:39:28;36.94;35.39;43.49;;
41704;Laerm;861;48.808;9.006;2023-01-08T09:42:03;37.15;35.63;50.59;;
41704;Laerm;861;48.808;9.006;2023-01-08T09:44:49;37.19;35.53;47.54;;
41704;Laerm;861;48.808;9.006;2023-01-08T09:47:43;37.76;35.53;54.53;;
41704;Laerm;861;48.808;9.006;2023-01-08T09:50:14;37.10;35.34;46.46;;
41704;Laerm;861;48.808;9.006;2023-01-08T09:52:40;36.98;35.64;42.49;;
41704;Laerm;861;48.808;9.006;2023-01-08T09:55:15;37.11;35.35;46.39;;
41704;Laerm;861;48.808;9.006;2023-01-08T09:57:44;37.23;35.41;49.85;;
41704;Laerm;861;48.808;9.006;2023-01-08T10:00:31;37.59;35.60;53.67;;
41704;Laerm;861;48.808;9.006;2023-01-08T10:02:59;36.95;35.60;48.23;;
41704;Laerm;861;48.808;9.006;2023-01-08T10:05:27;36.89;35.47;43.16;;
41704;Laerm;861;48.808;9.006;2023-01-08T10:07:54;37.20;35.41;50.00;;
41704;Laerm;861;48.808;9.006;2023-01-08T10:10:30;36.95;35.67;43.73;;
41704;Laerm;861;48.808;9.006;2023-01-08T10:12:59;38.10;35.47;50.83;;
41704;Laerm;861;48.808;9.006;2023-01-08T10:15:25;37.61;35.55;51.54;;
41704;Laerm;861;48.808;9.006;2023-01-08T10:18:12;37.02;35.44;46.07;;
41704;Laerm;861;48.808;9.006;2023-01-08T10:20:39;37.05;35.61;51.70;;
41704;Laerm;861;48.808;9.006;2023-01-08T10:23:18;37.32;35.56;48.56;;
41704;Laerm;861;48.808;9.006;2023-01-08T10:26:01;37.42;35.61;49.11;;
41704;Laerm;861;48.808;9.006;2023-01-08T10:28:33;36.92;35.57;43.13;;
41704;Laerm;861;48.808;9.006;2023-01-08T10:31:15;37.08;35.59;47.22;;
41704;Laerm;861;48.808;9.006;2023-01-08T10:33:48;36.90;35.39;40.91;;
41704;Laerm;861;48.808;9.006;2023-01-08T10:36:23;37.16;35.50;48.80;;
41704;Laerm;861;48.808;9.006;2023-01-08T10:39:03;37.88;35.43;51.95;;
41704;Laerm;861;48.808;9.006;2023-01-08T10:41:30;36.95;35.63;40.61;;
41704;Laerm;861;48.808;9.006;2023-01-08T10:44:15;37.32;35.49;48.86;;
41704;Laerm;861;48.808;9.006;2023-01-08T10:46:52;36.98;35.45;44.71;;
41704;Laerm;861;48.808;9.006;2023-01-08T10:49:38;37.85;35.51;51.38;;
41704;Laerm;861;48.808;9.006;2023-01-08T10:52:26;37.19;35.65;48.06;;
41704;Laerm;861;48.808;9.006;2023-01-08T10:54:54;37.19;35.61;50.41;;
41704;Laerm;861;48.808;9.006;2023-01-08T10:57:29;36.88;35.63;40.17;;
41704;Laerm;861;48.808;9.006;2023-01-08T10:59:56;37.52;35.62;52.28;;
41704;Laerm;861;48.808;9.006;2023-01-08T11:02:37;36.87;35.56;41.08;;
41704;Laerm;861;48.808;9.006;2023-01-08T11:05:08;36.90;35.53;45.15;;
41704;Laerm;861;48.808;9.006;2023-01-08T11:07:38;37.83;35.41;52.66;;
41704;Laerm;861;48.808;9.006;2023-01-08T11:10:20;37.03;35.52;43.83;;
41704;Laerm;861;48.808;9.006;2023-01-08T11:12:57;37.30;35.62;49.59;;
41704;Laerm;861;48.808;9.006;2023-01-08T11:15:39;36.93;35.77;40.33;;
41704;Laerm;861;48.808;9.006;2023-01-08T11:18:27;37.39;35.40;50.37;;
41704;Laerm;861;48.808;9.006;2023-01-08T11:21:28;38.45;35.45;53.56;;
41704;Laerm;861;48.808;9.006;2023-01-08T11:24:26;38.31;35.57;55.08;;
41704;Laerm;861;48.808;9.006;2023-01-08T11:27:19;37.18;35.48;46.11;;
41704;Laerm;861;48.808;9.006;2023-01-08T11:30:13;38.36;35.39;55.52;;
41704;Laerm;861;48.808;9.006;2023-01-08T11:33:11;37.16;35.66;48.06;;
41704;Laerm;861;48.808;9.006;2023-01-08T11:35:59;36.96;35.72;45.50;;
41704;Laerm;861;48.808;9.006;2023-01-08T11:38:27;36.93;35.68;41.86;;
41704;Laerm;861;48.808;9.006;2023-01-08T11:41:32;36.96;35.53;42.87;;
41704;Laerm;861;48.808;9.006;2023-01-08T11:45:02;37.27;35.49;48.03;;
41704;Laerm;861;48.808;9.006;2023-01-08T11:47:55;36.93;35.59;43.85;;
41704;Laerm;861;48.808;9.006;2023-01-08T11:54:32;36.92;35.38;42.99;;
41704;Laerm;861;48.808;9.006;2023-01-08T11:58:06;38.10;35.52;52.39;;
41704;Laerm;861;48.808;9.006;2023-01-08T12:04:44;38.46;35.56;53.81;;
41704;Laerm;861;48.808;9.006;2023-01-08T12:17:44;36.91;35.65;40.99;;
41704;Laerm;861;48.808;9.006;2023-01-08T12:27:49;37.47;35.39;49.81;;
41704;Laerm;861;48.808;9.006;2023-01-08T12:36:26;38.46;35.64;54.51;;
41704;Laerm;861;48.808;9.006;2023-01-08T12:39:15;37.55;35.62;48.32;;
41704;Laerm;861;48.808;9.006;2023-01-08T12:41:52;36.88;35.66;38.23;;
41704;Laerm;861;48.808;9.006;2023-01-08T12:44:29;37.05;35.39;42.68;;
41704;Laerm;861;48.808;9.006;2023-01-08T12:47:05;36.94;35.67;40.81;;
41704;Laerm;861;48.808;9.006;2023-01-08T12:53:16;37.05;35.65;47.22;;
41704;Laerm;861;48.808;9.006;2023-01-08T12:56:26;36.86;35.69;38.27;;
41704;Laerm;861;48.808;9.006;2023-01-08T12:59:49;36.90;35.53;41.36;;
41704;Laerm;861;48.808;9.006;2023-01-08T13:03:00;37.30;35.69;47.24;;
41704;Laerm;861;48.808;9.006;2023-01-08T13:05:28;36.89;35.50;42.95;;
41704;Laerm;861;48.808;9.006;2023-01-08T13:08:35;36.87;35.48;39.44;;
41704;Laerm;861;48.808;9.006;2023-01-08T13:11:04;37.01;35.64;46.01;;
41704;Laerm;861;48.808;9.006;2023-01-08T13:13:42;37.21;35.68;45.54;;
41704;Laerm;861;48.808;9.006;2023-01-08T13:18:40;37.57;35.61;51.82;;
41704;Laerm;861;48.808;9.006;2023-01-08T13:21:11;37.02;35.61;44.78;;
41704;Laerm;861;48.808;9.006;2023-01-08T13:23:37;37.23;35.60;47.17;;
41704;Laerm;861;48.808;9.006;2023-01-08T13:26:06;36.99;35.59;44.99;;
41704;Laerm;861;48.808;9.006;2023-01-08T13:28:45;37.20;35.49;46.87;;
41704;Laerm;861;48.808;9.006;2023-01-08T13:33:51;37.13;35.57;44.45;;
41704;Laerm;861;48.808;9.006;2023-01-08T13:36:28;37.68;35.66;50.94;;
41704;Laerm;861;48.808;9.006;2023-01-08T13:41:56;37.23;35.65;45.96;;
41704;Laerm;861;48.808;9.006;2023-01-08T13:44:38;36.89;35.42;38.06;;
41704;Laerm;861;48.808;9.006;2023-01-08T13:47:31;36.91;35.59;38.20;;
41704;Laerm;861;48.808;9.006;2023-01-08T13:50:15;37.02;35.66;48.62;;
41704;Laerm;861;48.808;9.006;2023-01-08T13:52:58;36.93;35.65;41.25;;
41704;Laerm;861;48.808;9.006;2023-01-08T13:55:40;37.20;35.66;51.43;;
41704;Laerm;861;48.808;9.006;2023-01-08T13:58:23;36.93;35.62;41.33;;
41704;Laerm;861;48.808;9.006;2023-01-08T14:00:56;36.93;35.37;43.35;;
41704;Laerm;861;48.808;9.006;2023-01-08T14:03:46;37.00;35.55;46.20;;
41704;Laerm;861;48.808;9.006;2023-01-08T14:06:17;37.48;35.83;49.68;;
41704;Laerm;861;48.808;9.006;2023-01-08T14:08:56;37.03;35.65;38.81;;
41704;Laerm;861;48.808;9.006;2023-01-08T14:11:34;37.30;35.95;41.99;;
41704;Laerm;861;48.808;9.006;2023-01-08T14:14:04;37.54;36.20;48.21;;
41704;Laerm;861;48.808;9.006;2023-01-08T14:16:36;37.37;36.09;40.65;;
41704;Laerm;861;48.808;9.006;2023-01-08T14:19:04;38.73;36.15;54.20;;
41704;Laerm;861;48.808;9.006;2023-01-08T14:21:31;37.49;36.09;47.00;;
41704;Laerm;861;48.808;9.006;2023-01-08T14:23:57;37.28;36.06;43.97;;
41704;Laerm;861;48.808;9.006;2023-01-08T14:26:37;37.71;35.87;49.49;;
41704;Laerm;861;48.808;9.006;2023-01-08T14:29:20;37.06;35.57;40.54;;
41704;Laerm;861;48.808;9.006;2023-01-08T14:31:55;37.04;35.70;39.94;;
41704;Laerm;861;48.808;9.006;2023-01-08T14:34:29;37.61;35.35;52.01;;
41704;Laerm;861;48.808;9.006;2023-01-08T14:36:56;37.07;35.87;42.37;;
41704;Laerm;861;48.808;9.006;2023-01-08T14:42:35;37.24;35.73;45.11;;
41704;Laerm;861;48.808;9.006;2023-01-08T14:45:29;37.01;35.49;41.15;;
41704;Laerm;861;48.808;9.006;2023-01-08T14:48:33;37.85;35.68;51.04;;
41704;Laerm;861;48.808;9.006;2023-01-08T14:51:23;37.16;35.81;45.73;;
41704;Laerm;861;48.808;9.006;2023-01-08T14:54:05;37.17;35.55;44.86;;
41704;Laerm;861;48.808;9.006;2023-01-08T14:56:35;37.29;35.80;47.66;;
41704;Laerm;861;48.808;9.006;2023-01-08T14:59:18;37.08;35.86;45.35;;
41704;Laerm;861;48.808;9.006;2023-01-08T15:01:59;37.26;35.88;46.79;;
41704;Laerm;861;48.808;9.006;2023-01-08T15:04:29;37.00;35.62;38.25;;
41704;Laerm;861;48.808;9.006;2023-01-08T15:07:25;37.32;35.64;47.84;;
41704;Laerm;861;48.808;9.006;2023-01-08T15:10:00;37.06;35.58;42.52;;
41704;Laerm;861;48.808;9.006;2023-01-08T15:12:30;36.94;35.73;39.10;;
41704;Laerm;861;48.808;9.006;2023-01-08T15:15:11;36.89;35.58;39.98;;
41704;Laerm;861;48.808;9.006;2023-01-08T15:17:47;37.23;35.53;49.92;;
41704;Laerm;861;48.808;9.006;2023-01-08T15:20:21;36.91;35.62;45.37;;
41704;Laerm;861;48.808;9.006;2023-01-08T15:22:50;36.79;35.47;38.24;;
41704;Laerm;861;48.808;9.006;2023-01-08T15:25:27;36.79;35.54;38.32;;
41704;Laerm;861;48.808;9.006;2023-01-08T15:28:03;36.88;35.50;45.89;;
41704;Laerm;861;48.808;9.006;2023-01-08T15:30:43;36.78;35.56;38.07;;
41704;Laerm;861;48.808;9.006;2023-01-08T15:33:25;36.78;35.46;38.01;;
41704;Laerm;861;48.808;9.006;2023-01-08T15:35:52;36.74;35.17;37.91;;